createdAt,value
2022-10-30T00:02:27.943Z,89.67
2022-10-30T00:04:59.251Z,88.94
2022-10-30T00:07:30.640Z,88.90
2022-10-30T00:10:01.927Z,89.41
2022-10-30T00:12:33.344Z,89.44
2022-10-30T00:15:05.717Z,89.41
2022-10-30T00:17:37.088Z,88.95
2022-10-30T00:20:08.919Z,88.85
2022-10-30T00:22:40.175Z,89.09
2022-10-30T00:25:11.484Z,89.07
2022-10-30T00:27:42.852Z,89.09
2022-10-30T00:30:15.389Z,89.12
2022-10-30T00:32:46.640Z,89.19
2022-10-30T00:35:18.030Z,89.24
2022-10-30T00:37:49.277Z,89.19
2022-10-30T00:40:21.017Z,89.37
2022-10-30T00:42:52.311Z,89.37
2022-10-30T00:45:24.646Z,89.19
2022-10-30T00:48:01.665Z,89.18
2022-10-30T00:50:37.668Z,89.54
2022-10-30T00:53:12.975Z,89.16
2022-10-30T00:55:50.211Z,89.43
2022-10-30T00:58:27.881Z,89.88
2022-10-30T01:01:03.274Z,89.35
2022-10-30T01:03:35.943Z,89.65
2022-10-30T01:06:11.797Z,89.87
2022-10-30T01:08:43.855Z,89.77
2022-10-30T01:11:15.267Z,89.84
2022-10-30T01:13:50.077Z,89.97
2022-10-30T01:16:21.340Z,89.93
2022-10-30T01:19:03.372Z,90.08
2022-10-30T01:22:00.132Z,90.47
2022-10-30T01:24:38.705Z,90.34
2022-10-30T01:28:01.188Z,90.45
2022-10-30T01:30:50.615Z,90.35
2022-10-30T01:33:40.187Z,90.20
2022-10-30T01:36:33.395Z,90.38
2022-10-30T01:39:12.960Z,90.59
2022-10-30T01:41:45.400Z,90.46
2022-10-30T01:44:35.010Z,90.08
2022-10-30T01:47:48.785Z,90.08
2022-10-30T01:50:36.934Z,90.02
2022-10-30T01:53:37.027Z,89.99
2022-10-30T01:56:18.730Z,90.14
2022-10-30T01:59:02.961Z,89.88
2022-10-30T02:01:36.778Z,89.98
2022-10-30T02:04:09.519Z,89.81
2022-10-30T02:06:41.413Z,90.09
2022-10-30T02:09:15.516Z,90.00
2022-10-30T02:11:48.020Z,90.03
2022-10-30T02:14:31.127Z,89.75
2022-10-30T02:17:05.714Z,89.70
2022-10-30T02:19:37.365Z,89.93
2022-10-30T02:22:08.905Z,89.94
2022-10-30T02:24:40.237Z,90.06
2022-10-30T02:27:11.720Z,90.09
2022-10-30T02:29:43.005Z,89.98
2022-10-30T02:32:14.260Z,89.82
2022-10-30T02:34:45.661Z,90.19
2022-10-30T02:37:16.943Z,90.13
2022-10-30T02:39:48.209Z,90.49
2022-10-30T02:42:19.450Z,90.39
2022-10-30T02:44:50.700Z,90.41
2022-10-30T02:47:21.954Z,90.57
2022-10-30T02:49:53.240Z,90.06
2022-10-30T02:52:24.492Z,90.50
2022-10-30T02:54:55.773Z,90.49
2022-10-30T02:57:27.031Z,90.47
2022-10-30T02:59:58.328Z,90.56
2022-10-30T03:02:29.604Z,90.60
2022-10-30T03:05:00.959Z,90.57
2022-10-30T03:07:32.418Z,90.66
2022-10-30T03:10:04.004Z,90.68
2022-10-30T03:12:35.264Z,90.78
2022-10-30T03:15:07.214Z,90.59
2022-10-30T03:17:38.502Z,90.55
2022-10-30T03:20:10.415Z,90.64
2022-10-30T03:22:41.656Z,90.45
2022-10-30T03:25:12.979Z,90.60
2022-10-30T03:27:44.277Z,90.29
2022-10-30T03:30:15.551Z,90.59
2022-10-30T03:32:46.948Z,90.15
2022-10-30T03:35:18.219Z,90.38
2022-10-30T03:37:49.490Z,90.27
2022-10-30T03:40:20.760Z,90.00
2022-10-30T03:42:51.993Z,90.51
2022-10-30T03:45:23.336Z,90.19
2022-10-30T03:47:54.823Z,90.30
2022-10-30T03:50:26.168Z,90.28
2022-10-30T03:52:58.457Z,90.12
2022-10-30T03:55:29.728Z,90.29
2022-10-30T03:58:01.171Z,90.13
2022-10-30T04:00:33.241Z,90.33
2022-10-30T04:03:09.078Z,90.36
2022-10-30T04:05:40.433Z,90.55
2022-10-30T04:08:13.731Z,90.27
2022-10-30T04:10:46.845Z,90.12
2022-10-30T04:13:20.194Z,90.42
2022-10-30T04:15:57.189Z,90.46
2022-10-30T04:18:29.129Z,90.18
2022-10-30T04:21:00.857Z,90.40
2022-10-30T04:23:32.252Z,90.27
2022-10-30T04:26:03.596Z,90.21
2022-10-30T04:28:34.915Z,89.83
2022-10-30T04:31:06.227Z,90.27
2022-10-30T04:33:37.486Z,90.10
2022-10-30T04:36:08.953Z,90.25
2022-10-30T04:38:40.278Z,90.27
2022-10-30T04:41:11.528Z,90.04
2022-10-30T04:43:42.809Z,90.16
2022-10-30T04:46:14.085Z,90.04
2022-10-30T04:48:45.472Z,90.09
2022-10-30T04:51:16.734Z,89.95
2022-10-30T04:53:48.028Z,89.70
2022-10-30T04:56:19.384Z,89.91
2022-10-30T04:58:50.622Z,89.46
2022-10-30T05:01:22.184Z,89.99
2022-10-30T05:03:54.818Z,89.76
2022-10-30T05:06:28.168Z,89.93
2022-10-30T05:08:59.608Z,89.75
2022-10-30T05:11:30.937Z,89.71
2022-10-30T05:14:02.223Z,89.72
2022-10-30T05:16:33.631Z,89.62
2022-10-30T05:19:04.890Z,89.91
2022-10-30T05:21:36.409Z,89.20
2022-10-30T05:24:08.179Z,89.61
2022-10-30T05:26:39.523Z,89.13
2022-10-30T05:29:10.785Z,89.35
2022-10-30T05:31:42.053Z,88.75
2022-10-30T05:34:13.326Z,89.26
2022-10-30T05:36:44.597Z,88.97
2022-10-30T05:39:15.921Z,89.24
2022-10-30T05:41:47.273Z,89.22
2022-10-30T05:44:34.292Z,89.20
2022-10-30T05:47:11.333Z,89.11
2022-10-30T05:49:42.591Z,89.47
2022-10-30T05:52:13.987Z,89.30
2022-10-30T05:54:45.301Z,89.34
2022-10-30T05:57:16.574Z,89.50
2022-10-30T05:59:47.823Z,89.61
2022-10-30T06:02:19.204Z,89.52
2022-10-30T06:04:50.524Z,89.55
2022-10-30T06:07:21.861Z,89.72
2022-10-30T06:09:53.125Z,89.41
2022-10-30T06:12:24.501Z,89.70
2022-10-30T06:14:55.745Z,89.67
2022-10-30T06:17:30.537Z,89.78
2022-10-30T06:20:01.775Z,89.79
2022-10-30T06:22:33.024Z,89.80
2022-10-30T06:25:04.709Z,89.78
2022-10-30T06:27:36.182Z,89.98
2022-10-30T06:30:07.997Z,89.92
2022-10-30T06:32:39.269Z,89.60
2022-10-30T06:35:10.679Z,89.75
2022-10-30T06:37:47.430Z,89.40
2022-10-30T06:40:19.288Z,89.93
2022-10-30T06:42:52.526Z,89.96
2022-10-30T06:45:24.903Z,89.76
2022-10-30T06:47:56.499Z,89.72
2022-10-30T06:50:28.123Z,89.73
2022-10-30T06:52:59.524Z,89.30
2022-10-30T06:55:30.845Z,90.02
2022-10-30T06:58:02.548Z,89.71
2022-10-30T07:00:34.103Z,89.56
2022-10-30T07:03:06.552Z,89.18
2022-10-30T07:05:37.903Z,89.67
2022-10-30T07:08:09.264Z,89.70
2022-10-30T07:10:40.581Z,90.06
2022-10-30T07:13:11.928Z,89.54
2022-10-30T07:15:43.976Z,89.75
2022-10-30T07:18:15.400Z,90.00
2022-10-30T07:20:46.739Z,89.75
2022-10-30T07:23:17.981Z,89.46
2022-10-30T07:25:49.444Z,89.59
2022-10-30T07:28:20.800Z,89.70
2022-10-30T07:30:52.140Z,89.74
2022-10-30T07:33:23.433Z,89.46
2022-10-30T07:35:54.762Z,89.86
2022-10-30T07:38:26.046Z,89.42
2022-10-30T07:40:57.292Z,89.76
2022-10-30T07:43:28.538Z,90.17
2022-10-30T07:45:59.803Z,90.07
2022-10-30T07:48:31.071Z,90.13
2022-10-30T07:51:02.461Z,89.97
2022-10-30T07:53:33.746Z,89.95
2022-10-30T07:56:05.220Z,89.97
2022-10-30T07:58:42.694Z,89.78
2022-10-30T08:01:16.508Z,89.40
2022-10-30T08:03:47.846Z,89.30
2022-10-30T08:06:22.944Z,89.08
2022-10-30T08:08:57.616Z,88.81
2022-10-30T08:11:28.950Z,88.62
2022-10-30T08:14:00.375Z,88.13
2022-10-30T08:16:31.665Z,87.87
2022-10-30T08:19:02.953Z,87.66
2022-10-30T08:21:34.233Z,87.10
2022-10-30T08:24:05.828Z,86.79
2022-10-30T08:26:37.168Z,86.46
2022-10-30T08:29:08.558Z,86.16
2022-10-30T08:31:39.822Z,86.10
2022-10-30T08:34:11.074Z,85.51
2022-10-30T08:36:46.728Z,85.36
2022-10-30T08:39:21.036Z,85.34
2022-10-30T08:41:52.313Z,84.87
2022-10-30T08:44:23.567Z,84.81
2022-10-30T08:46:54.931Z,84.64
2022-10-30T08:49:26.268Z,83.83
2022-10-30T08:51:57.528Z,83.46
2022-10-30T08:54:28.851Z,83.18
2022-10-30T08:57:00.212Z,83.18
2022-10-30T08:59:31.584Z,82.91
2022-10-30T09:02:02.928Z,82.47
2022-10-30T09:04:34.282Z,81.86
2022-10-30T09:07:07.629Z,81.37
2022-10-30T09:09:41.607Z,81.41
2022-10-30T09:12:12.865Z,80.92
2022-10-30T09:14:44.146Z,81.07
2022-10-30T09:17:15.411Z,80.46
2022-10-30T09:22:22.941Z,79.27
2022-10-30T09:24:54.331Z,79.54
2022-10-30T09:27:35.973Z,78.63
2022-10-30T09:30:08.105Z,78.80
2022-10-30T09:32:39.919Z,78.45
2022-10-30T09:35:11.320Z,77.86
2022-10-30T09:37:42.710Z,77.81
2022-10-30T09:40:34.597Z,76.79
2022-10-30T09:43:44.123Z,76.82
2022-10-30T09:47:09.336Z,76.24
2022-10-30T09:49:54.350Z,76.62
2022-10-30T09:53:03.643Z,75.97
2022-10-30T09:55:49.877Z,76.05
2022-10-30T09:58:55.081Z,76.23
2022-10-30T10:01:40.178Z,75.98
2022-10-30T10:04:40.029Z,74.94
2022-10-30T10:07:48.999Z,74.53
2022-10-30T10:10:35.609Z,74.76
2022-10-30T10:13:40.991Z,74.85
2022-10-30T10:16:20.712Z,74.86
2022-10-30T10:19:15.612Z,74.47
2022-10-30T10:22:01.094Z,73.67
2022-10-30T10:24:36.317Z,73.68
2022-10-30T10:27:17.020Z,73.34
2022-10-30T10:30:06.572Z,72.89
2022-10-30T10:33:14.871Z,73.06
2022-10-30T10:36:17.587Z,72.77
2022-10-30T10:39:16.484Z,72.67
2022-10-30T10:41:59.048Z,72.82
2022-10-30T10:44:46.436Z,72.68
2022-10-30T10:47:38.961Z,72.54
2022-10-30T10:50:34.348Z,72.09
2022-10-30T10:53:15.238Z,71.99
2022-10-30T10:55:51.251Z,71.44
2022-10-30T10:58:44.675Z,71.31
2022-10-30T11:01:24.452Z,71.29
2022-10-30T11:04:21.876Z,70.94
2022-10-30T11:06:55.829Z,70.81
2022-10-30T11:09:28.316Z,70.91
2022-10-30T11:11:59.632Z,70.35
2022-10-30T11:14:30.969Z,70.26
2022-10-30T11:17:27.013Z,69.77
2022-10-30T11:20:02.884Z,70.26
2022-10-30T11:22:39.892Z,69.71
2022-10-30T11:25:25.283Z,69.70
2022-10-30T11:28:03.475Z,69.56
2022-10-30T11:30:34.789Z,69.43
2022-10-30T11:33:22.108Z,69.00
2022-10-30T11:35:53.391Z,68.76
2022-10-30T11:38:27.105Z,68.48
2022-10-30T11:41:01.764Z,68.36
2022-10-30T11:43:33.089Z,68.52
2022-10-30T11:46:09.446Z,68.50
2022-10-30T11:48:44.411Z,68.27
2022-10-30T11:51:31.576Z,68.23
2022-10-30T11:54:04.403Z,67.92
2022-10-30T11:56:36.343Z,67.54
2022-10-30T11:59:18.949Z,67.07
2022-10-30T12:02:03.847Z,67.14
2022-10-30T12:04:35.559Z,67.40
2022-10-30T12:07:08.833Z,67.64
2022-10-30T12:09:45.134Z,67.55
2022-10-30T12:12:19.176Z,67.37
2022-10-30T12:14:52.411Z,66.87
2022-10-30T12:17:23.837Z,67.05
2022-10-30T12:19:57.280Z,66.91
2022-10-30T12:22:34.136Z,66.53
2022-10-30T12:25:28.092Z,66.89
2022-10-30T12:28:04.571Z,66.77
2022-10-30T12:30:49.728Z,66.85
2022-10-30T12:33:36.552Z,66.63
2022-10-30T12:36:15.585Z,66.85
2022-10-30T12:38:57.987Z,66.64
2022-10-30T12:41:58.371Z,66.50
2022-10-30T12:44:51.744Z,66.59
2022-10-30T12:47:45.766Z,66.65
2022-10-30T12:50:26.633Z,66.01
2022-10-30T12:53:06.728Z,66.33
2022-10-30T12:55:47.936Z,65.77
2022-10-30T12:58:28.084Z,66.04
2022-10-30T13:01:34.700Z,65.23
2022-10-30T13:04:31.951Z,65.58
2022-10-30T13:07:24.664Z,65.90
2022-10-30T13:10:06.542Z,65.40
2022-10-30T13:12:40.888Z,65.28
2022-10-30T13:15:41.885Z,64.96
2022-10-30T13:18:22.119Z,65.18
2022-10-30T13:21:17.902Z,65.48
2022-10-30T13:23:57.973Z,65.66
2022-10-30T13:26:41.551Z,65.10
2022-10-30T13:29:26.642Z,65.65
2022-10-30T13:32:11.716Z,65.15
2022-10-30T13:34:55.528Z,65.53
2022-10-30T13:37:45.244Z,65.27
2022-10-30T13:40:31.615Z,65.68
2022-10-30T13:43:40.129Z,65.55
2022-10-30T13:46:21.657Z,65.90
2022-10-30T13:48:58.869Z,65.78
2022-10-30T13:51:39.739Z,65.50
2022-10-30T13:54:13.847Z,65.59
2022-10-30T13:56:47.240Z,65.57
2022-10-30T13:59:39.797Z,65.67
2022-10-30T14:03:03.107Z,66.11
2022-10-30T14:06:13.648Z,65.99
2022-10-30T14:09:14.129Z,66.62
2022-10-30T14:11:45.469Z,66.56
2022-10-30T14:14:30.002Z,66.65
2022-10-30T14:17:14.653Z,66.68
2022-10-30T14:20:08.727Z,66.76
2022-10-30T14:22:43.734Z,67.12
2022-10-30T14:25:16.224Z,67.38
2022-10-30T14:27:55.842Z,67.19
2022-10-30T14:30:28.665Z,67.51
2022-10-30T14:33:00.045Z,67.83
2022-10-30T14:35:37.404Z,67.62
2022-10-30T14:38:08.688Z,68.10
2022-10-30T14:40:45.616Z,68.05
2022-10-30T14:43:38.524Z,68.37
2022-10-30T14:46:19.626Z,68.57
2022-10-30T14:49:27.723Z,68.80
2022-10-30T14:52:17.057Z,69.52
2022-10-30T14:54:56.879Z,69.31
2022-10-30T14:57:52.078Z,70.34
2022-10-30T15:00:23.522Z,70.49
2022-10-30T15:02:57.824Z,70.53
2022-10-30T15:05:43.093Z,71.08
2022-10-30T15:08:30.082Z,71.01
2022-10-30T15:11:19.484Z,71.74
2022-10-30T15:14:01.420Z,72.27
2022-10-30T15:16:38.595Z,72.14
2022-10-30T15:19:14.534Z,72.20
2022-10-30T15:21:48.431Z,72.21
2022-10-30T15:24:26.927Z,72.78
2022-10-30T15:27:02.328Z,73.15
2022-10-30T15:29:37.052Z,73.95
2022-10-30T15:32:18.710Z,73.47
2022-10-30T15:34:55.064Z,74.28
2022-10-30T15:37:27.388Z,73.95
2022-10-30T15:40:18.703Z,73.86
2022-10-30T15:42:52.210Z,74.44
2022-10-30T15:45:28.685Z,74.50
2022-10-30T15:48:15.253Z,74.60
2022-10-30T15:51:14.802Z,74.92
2022-10-30T15:53:51.120Z,75.27
2022-10-30T15:57:08.397Z,75.55
2022-10-30T15:59:35.279Z,75.46
2022-10-30T16:02:23.872Z,75.82
2022-10-30T16:04:55.443Z,76.06
2022-10-30T16:07:29.128Z,76.27
2022-10-30T16:10:02.731Z,76.28
2022-10-30T16:12:35.072Z,76.37
2022-10-30T16:15:30.815Z,76.73
2022-10-30T16:18:16.870Z,76.93
2022-10-30T16:20:54.047Z,77.13
2022-10-30T16:23:25.499Z,77.08
2022-10-30T16:25:58.978Z,77.34
2022-10-30T16:28:34.107Z,77.34
2022-10-30T16:31:08.127Z,77.17
2022-10-30T16:33:41.253Z,77.53
2022-10-30T16:36:16.866Z,77.71
2022-10-30T16:38:49.708Z,77.84
2022-10-30T16:41:26.561Z,77.75
2022-10-30T16:44:14.872Z,78.00
2022-10-30T16:46:50.812Z,78.15
2022-10-30T16:49:23.757Z,78.00
2022-10-30T16:52:06.311Z,78.26
2022-10-30T16:54:40.876Z,78.39
2022-10-30T16:57:22.343Z,78.35
2022-10-30T16:59:55.320Z,78.86
2022-10-30T17:02:30.221Z,78.96
2022-10-30T17:05:18.925Z,78.96
2022-10-30T17:07:59.114Z,79.13
2022-10-30T17:10:33.740Z,79.51
2022-10-30T17:13:29.704Z,79.87
2022-10-30T17:16:25.944Z,80.15
2022-10-30T17:19:21.502Z,80.21
2022-10-30T17:21:53.188Z,80.50
2022-10-30T17:24:36.352Z,80.43
2022-10-30T17:27:27.167Z,80.64
2022-10-30T17:29:58.505Z,80.70
2022-10-30T17:32:54.211Z,81.08
2022-10-30T17:35:25.579Z,81.17
2022-10-30T17:37:59.797Z,80.86
2022-10-30T17:40:34.051Z,81.32
2022-10-30T17:43:05.352Z,81.36
2022-10-30T17:45:36.633Z,81.31
2022-10-30T17:48:16.426Z,81.51
2022-10-30T17:50:47.763Z,81.44
2022-10-30T17:53:21.803Z,81.51
2022-10-30T17:56:00.478Z,81.64
2022-10-30T17:58:31.823Z,81.57
2022-10-30T18:01:03.186Z,81.77
2022-10-30T18:03:34.636Z,81.67
2022-10-30T18:06:10.856Z,81.96
2022-10-30T18:08:45.078Z,82.16
2022-10-30T18:11:21.704Z,82.12
2022-10-30T18:13:55.747Z,81.80
2022-10-30T18:16:27.578Z,82.28
2022-10-30T18:18:58.871Z,82.42
2022-10-30T18:21:31.239Z,82.48
2022-10-30T18:24:02.552Z,82.55
2022-10-30T18:26:37.755Z,81.97
2022-10-30T18:29:12.421Z,82.72
2022-10-30T18:31:43.670Z,82.54
2022-10-30T18:34:18.170Z,82.91
2022-10-30T18:36:49.746Z,82.95
2022-10-30T18:39:20.996Z,83.63
2022-10-30T18:41:53.622Z,83.01
2022-10-30T18:44:24.869Z,82.76
2022-10-30T18:47:01.641Z,83.28
2022-10-30T18:49:34.315Z,82.90
2022-10-30T18:52:05.575Z,83.37
2022-10-30T18:54:36.908Z,83.01
2022-10-30T18:57:08.209Z,82.93
2022-10-30T18:59:39.565Z,83.26
2022-10-30T19:02:22.718Z,83.45
2022-10-30T19:04:54.063Z,82.99
2022-10-30T19:07:25.341Z,83.14
2022-10-30T19:09:59.386Z,82.95
2022-10-30T19:12:30.731Z,83.02
2022-10-30T19:15:02.028Z,82.82
2022-10-30T19:17:33.280Z,83.37
2022-10-30T19:20:04.918Z,83.18
2022-10-30T19:22:36.446Z,83.26
2022-10-30T19:25:17.023Z,83.31
2022-10-30T19:27:48.549Z,83.33
2022-10-30T19:30:21.283Z,83.33
2022-10-30T19:32:52.634Z,82.82
2022-10-30T19:35:27.008Z,83.64
2022-10-30T19:37:58.845Z,83.26
2022-10-30T19:40:34.608Z,83.40
2022-10-30T19:43:07.066Z,83.41
2022-10-30T19:45:38.384Z,83.46
2022-10-30T19:48:24.716Z,83.51
2022-10-30T19:51:09.121Z,83.45
2022-10-30T19:53:40.965Z,83.60
2022-10-30T19:56:14.741Z,83.60
2022-10-30T19:58:46.019Z,83.73
2022-10-30T20:01:17.530Z,83.45
2022-10-30T20:03:49.017Z,83.82
2022-10-30T20:06:21.295Z,83.46
2022-10-30T20:08:52.638Z,83.48
2022-10-30T20:11:24.249Z,83.60
2022-10-30T20:13:55.508Z,83.70
2022-10-30T20:16:27.009Z,83.86
2022-10-30T20:18:58.359Z,83.75
2022-10-30T20:21:30.844Z,84.03
2022-10-30T20:24:02.099Z,83.82
2022-10-30T20:26:33.428Z,84.13
2022-10-30T20:29:04.697Z,84.11
2022-10-30T20:31:36.081Z,84.14
2022-10-30T20:34:07.347Z,84.16
2022-10-30T20:36:38.628Z,84.17
2022-10-30T20:39:11.652Z,83.83
2022-10-30T20:41:43.011Z,84.15
2022-10-30T20:44:14.282Z,84.01
2022-10-30T20:46:46.214Z,84.17
2022-10-30T20:49:18.485Z,84.13
2022-10-30T20:51:49.979Z,84.39
2022-10-30T20:54:21.254Z,84.27
2022-10-30T20:56:52.581Z,84.48
2022-10-30T20:59:23.965Z,84.48
2022-10-30T21:01:55.451Z,84.61
2022-10-30T21:04:26.911Z,84.38
2022-10-30T21:06:58.167Z,84.40
2022-10-30T21:09:29.524Z,84.18
2022-10-30T21:12:00.800Z,83.83
2022-10-30T21:14:32.139Z,84.20
2022-10-30T21:17:03.504Z,83.99
2022-10-30T21:19:35.144Z,84.46
2022-10-30T21:22:06.439Z,84.29
2022-10-30T21:24:37.866Z,84.38
2022-10-30T21:27:09.138Z,84.41
2022-10-30T21:29:40.413Z,84.29
2022-10-30T21:32:14.756Z,84.38
2022-10-30T21:34:46.017Z,84.32
2022-10-30T21:37:17.308Z,84.29
2022-10-30T21:39:48.654Z,84.67
2022-10-30T21:42:20.129Z,84.36
2022-10-30T21:44:51.444Z,84.36
2022-10-30T21:47:22.742Z,84.23
2022-10-30T21:49:54.051Z,84.42
2022-10-30T21:52:25.315Z,84.15
2022-10-30T21:54:56.558Z,84.25
2022-10-30T21:57:28.794Z,84.30
2022-10-30T22:00:03.430Z,84.03
2022-10-30T22:02:38.483Z,84.48
2022-10-30T22:05:09.737Z,84.26
2022-10-30T22:07:41.000Z,84.27
2022-10-30T22:10:12.262Z,84.33
2022-10-30T22:12:43.552Z,84.52
2022-10-30T22:15:14.887Z,84.53
2022-10-30T22:17:46.169Z,84.64
2022-10-30T22:20:17.440Z,84.52
2022-10-30T22:22:48.748Z,84.86
2022-10-30T22:25:20.260Z,84.87
2022-10-30T22:27:51.516Z,84.58
2022-10-30T22:30:22.780Z,84.65
2022-10-30T22:32:54.129Z,84.89
2022-10-30T22:35:25.391Z,84.65
2022-10-30T22:37:57.580Z,84.55
2022-10-30T22:40:28.928Z,84.89
2022-10-30T22:43:00.545Z,85.22
2022-10-30T22:45:32.367Z,85.05
2022-10-30T22:48:03.858Z,84.71
2022-10-30T22:50:36.843Z,84.95
2022-10-30T22:53:08.095Z,84.91
2022-10-30T22:55:39.365Z,84.80
2022-10-30T22:58:10.692Z,84.87
2022-10-30T23:00:41.992Z,85.10
2022-10-30T23:03:14.031Z,84.90
2022-10-30T23:05:45.365Z,85.35
2022-10-30T23:08:16.636Z,85.56
2022-10-30T23:10:54.984Z,85.88
2022-10-30T23:13:26.363Z,85.64
2022-10-30T23:16:06.019Z,85.77
2022-10-30T23:18:37.296Z,85.58
2022-10-30T23:21:20.743Z,85.86
2022-10-30T23:23:52.604Z,85.66
2022-10-30T23:26:30.306Z,85.90
2022-10-30T23:29:02.435Z,85.88
2022-10-30T23:31:35.644Z,85.74
2022-10-30T23:34:12.357Z,86.17
2022-10-30T23:36:44.608Z,86.58
2022-10-30T23:39:17.789Z,86.60
2022-10-30T23:41:49.102Z,86.55
2022-10-30T23:44:20.364Z,86.51
2022-10-30T23:46:51.625Z,86.91
2022-10-30T23:49:22.874Z,86.67
2022-10-30T23:51:54.156Z,87.23
2022-10-30T23:54:25.400Z,87.37
2022-10-30T23:56:56.757Z,87.21
2022-10-30T23:59:28.035Z,87.68
